Time;durP1;ratioP1;P1;durP2;ratioP2;P2;SDS_P1;SDS_P2;PMS_P1;PMS_P2;Temp;Humidity;BMP_temperature;BMP_pressure;BME280_temperature;BME280_humidity;BME280_pressure;Samples;Min_cycle;Max_cycle;Signal;HPM_P1;HPM_P2
2022/03/23 00:01:58;;;;;;;115.57;39.35;;;;;;;;;;5095507;28;20457;-62
2022/03/23 00:04:24;;;;;;;104.75;38.50;;;;;;;;;;5095491;28;20031;-63
2022/03/23 00:06:49;;;;;;;112.80;39.22;;;;;;;;;;5074413;22;20559;-62
2022/03/23 00:09:15;;;;;;;103.78;37.55;;;;;;;;;;5055175;28;20021;-62
2022/03/23 00:11:41;;;;;;;106.80;38.42;;;;;;;;;;5054940;28;20021;-62
2022/03/23 00:14:09;;;;;;;89.47;33.08;;;;;;;;;;5054962;28;20413;-65
2022/03/23 00:16:36;;;;;;;98.70;33.75;;;;;;;;;;5054809;28;20108;-62
2022/03/23 00:19:09;;;;;;;96.68;34.35;;;;;;;;;;5054815;28;20029;-62
2022/03/23 00:21:35;;;;;;;96.13;34.95;;;;;;;;;;5054751;28;20017;-64
2022/03/23 00:24:00;;;;;;;78.80;32.70;;;;;;;;;;5054705;28;20025;-63
2022/03/23 00:26:26;;;;;;;70.80;31.05;;;;;;;;;;5054518;28;20418;-62
2022/03/23 00:28:51;;;;;;;82.72;33.28;;;;;;;;;;5054760;28;20070;-63
2022/03/23 00:31:18;;;;;;;84.45;33.58;;;;;;;;;;5054725;28;20090;-62
2022/03/23 00:33:44;;;;;;;83.72;32.60;;;;;;;;;;5054545;28;20120;-63
2022/03/23 00:36:11;;;;;;;89.43;33.97;;;;;;;;;;5054321;28;20071;-62
2022/03/23 00:38:36;;;;;;;102.07;36.33;;;;;;;;;;5054449;28;20032;-63
2022/03/23 00:41:03;;;;;;;101.50;32.95;;;;;;;;;;5054459;28;20021;-61
2022/03/23 00:43:29;;;;;;;76.97;32.60;;;;;;;;;;5054420;28;20136;-64
2022/03/23 00:45:54;;;;;;;89.53;32.65;;;;;;;;;;5054283;28;20116;-62
2022/03/23 00:48:20;;;;;;;76.38;31.23;;;;;;;;;;5054344;28;20029;-63
2022/03/23 00:50:46;;;;;;;91.78;33.20;;;;;;;;;;5054197;28;20071;-63
2022/03/23 00:53:12;;;;;;;99.28;34.25;;;;;;;;;;5054275;28;20021;-61
2022/03/23 00:55:37;;;;;;;99.18;35.30;;;;;;;;;;5054269;28;20359;-63
2022/03/23 00:58:02;;;;;;;95.93;33.78;;;;;;;;;;5054165;28;20036;-63
2022/03/23 01:00:28;;;;;;;83.53;31.85;;;;;;;;;;5054062;28;20021;-63
2022/03/23 01:02:53;;;;;;;79.20;29.52;;;;;;;;;;5054230;28;20365;-63
2022/03/23 01:05:19;;;;;;;76.50;29.75;;;;;;;;;;5053589;28;20086;-63
2022/03/23 01:07:46;;;;;;;72.72;29.58;;;;;;;;;;5053810;28;20037;-64
2022/03/23 01:10:14;;;;;;;81.10;28.95;;;;;;;;;;5053959;28;20100;-63
2022/03/23 01:12:44;;;;;;;72.93;28.77;;;;;;;;;;5035840;28;20028;-63
2022/03/23 01:15:11;;;;;;;74.43;27.83;;;;;;;;;;5036551;28;20021;-63
2022/03/23 01:17:38;;;;;;;68.57;28.70;;;;;;;;;;5053876;28;20087;-63
2022/03/23 01:20:09;;;;;;;76.43;30.58;;;;;;;;;;5053489;28;20055;-63
2022/03/23 01:22:36;;;;;;;85.90;29.83;;;;;;;;;;5053661;28;20025;-63
2022/03/23 01:25:03;;;;;;;71.40;29.20;;;;;;;;;;5053723;28;20143;-63
2022/03/23 01:27:29;;;;;;;71.63;29.20;;;;;;;;;;5053404;28;20094;-63
2022/03/23 01:29:54;;;;;;;76.43;29.30;;;;;;;;;;5053592;28;20108;-63
2022/03/23 01:32:19;;;;;;;74.68;29.40;;;;;;;;;;5053648;28;20142;-63
2022/03/23 01:34:45;;;;;;;72.38;29.42;;;;;;;;;;5053224;28;20029;-63
2022/03/23 01:37:10;;;;;;;72.82;30.50;;;;;;;;;;5053337;28;20451;-63
2022/03/23 01:39:36;;;;;;;74.75;29.85;;;;;;;;;;5053458;28;20466;-62
2022/03/23 01:42:02;;;;;;;81.35;30.88;;;;;;;;;;5053271;28;20056;-64
2022/03/23 01:44:27;;;;;;;63.83;27.40;;;;;;;;;;5053224;28;20032;-63
2022/03/23 01:47:09;;;;;;;77.10;29.65;;;;;;;;;;5053174;28;20083;-63
2022/03/23 01:49:41;;;;;;;69.03;28.73;;;;;;;;;;5053276;28;20025;-63
2022/03/23 01:52:09;;;;;;;75.88;30.35;;;;;;;;;;5053079;28;20029;-63
2022/03/23 01:54:36;;;;;;;76.40;29.25;;;;;;;;;;5035379;28;20146;-63
2022/03/23 01:57:03;;;;;;;74.85;30.55;;;;;;;;;;5053005;28;20098;-64
2022/03/23 01:59:29;;;;;;;72.43;30.77;;;;;;;;;;5053205;28;20021;-63
2022/03/23 02:01:55;;;;;;;84.30;31.05;;;;;;;;;;5052763;28;20397;-63
2022/03/23 02:04:21;;;;;;;85.32;31.90;;;;;;;;;;5053046;28;20095;-63
2022/03/23 02:06:48;;;;;;;78.00;31.42;;;;;;;;;;5047958;28;20433;-62
2022/03/23 02:09:17;;;;;;;83.03;30.95;;;;;;;;;;5033015;28;20021;-63
2022/03/23 02:11:44;;;;;;;69.57;29.17;;;;;;;;;;5040086;28;20053;-63
2022/03/23 02:14:10;;;;;;;68.18;30.05;;;;;;;;;;5052464;28;20052;-63
2022/03/23 02:16:39;;;;;;;65.57;26.98;;;;;;;;;;5052474;28;20029;-63
2022/03/23 02:19:04;;;;;;;67.55;30.08;;;;;;;;;;5052893;28;20028;-63
2022/03/23 02:21:31;;;;;;;65.78;27.00;;;;;;;;;;5052660;28;20029;-62
2022/03/23 02:23:57;;;;;;;67.35;28.10;;;;;;;;;;5052662;28;20028;-63
2022/03/23 02:26:25;;;;;;;69.85;27.73;;;;;;;;;;5052579;28;20067;-63
2022/03/23 02:28:51;;;;;;;65.00;28.38;;;;;;;;;;5052777;28;20111;-65
2022/03/23 02:31:17;;;;;;;62.55;27.60;;;;;;;;;;5052388;28;20024;-63
2022/03/23 02:33:42;;;;;;;66.30;27.83;;;;;;;;;;5052726;28;20488;-63
2022/03/23 02:36:08;;;;;;;64.88;26.50;;;;;;;;;;5050644;28;20025;-63
2022/03/23 02:38:34;;;;;;;69.13;26.92;;;;;;;;;;5051723;28;20112;-63
2022/03/23 02:40:59;;;;;;;67.95;29.10;;;;;;;;;;5052558;28;20025;-62
2022/03/23 02:43:25;;;;;;;77.18;29.55;;;;;;;;;;5052500;28;20025;-63
2022/03/23 02:45:50;;;;;;;70.25;29.50;;;;;;;;;;5052064;28;20027;-63
2022/03/23 02:48:16;;;;;;;64.85;27.75;;;;;;;;;;5052464;28;20139;-62
2022/03/23 02:50:42;;;;;;;64.03;28.13;;;;;;;;;;5052382;28;20025;-63
2022/03/23 03:01:52;;;;;;;64.05;28.10;;;;;;;;;;5052205;28;20087;-64
2022/03/23 03:04:19;;;;;;;60.53;27.33;;;;;;;;;;5052357;28;20025;-63
2022/03/23 03:06:45;;;;;;;68.03;28.13;;;;;;;;;;5051748;28;20051;-63
2022/03/23 03:09:12;;;;;;;79.20;28.00;;;;;;;;;;5052213;28;20025;-65
2022/03/23 03:11:38;;;;;;;62.67;26.27;;;;;;;;;;5052183;28;20079;-65
2022/03/23 03:14:04;;;;;;;62.50;27.35;;;;;;;;;;5052019;28;20443;-65
2022/03/23 03:16:29;;;;;;;69.63;28.58;;;;;;;;;;5052108;28;20029;-62
2022/03/23 03:18:55;;;;;;;71.55;28.77;;;;;;;;;;5052213;28;20154;-64
2022/03/23 03:21:20;;;;;;;71.47;30.80;;;;;;;;;;5052080;28;20024;-63
2022/03/23 03:23:47;;;;;;;77.25;31.63;;;;;;;;;;5052171;28;20033;-64
2022/03/23 03:26:14;;;;;;;75.15;30.02;;;;;;;;;;5055208;28;20065;-63
2022/03/23 03:28:41;;;;;;;73.85;30.30;;;;;;;;;;5059246;22;20080;-63
2022/03/23 03:31:10;;;;;;;66.50;28.25;;;;;;;;;;5035957;28;20053;-63
2022/03/23 03:33:36;;;;;;;71.25;30.65;;;;;;;;;;5035895;28;20048;-63
2022/03/23 03:36:03;;;;;;;75.45;29.80;;;;;;;;;;5035698;28;20034;-62
2022/03/23 03:38:29;;;;;;;77.00;32.55;;;;;;;;;;5035619;28;20029;-64
2022/03/23 03:40:55;;;;;;;67.53;29.25;;;;;;;;;;5035863;28;20099;-64
2022/03/23 03:43:20;;;;;;;77.18;30.20;;;;;;;;;;5035587;28;20061;-63
2022/03/23 03:45:46;;;;;;;83.57;30.92;;;;;;;;;;5035576;28;20034;-64
2022/03/23 03:48:13;;;;;;;91.32;32.47;;;;;;;;;;5035596;28;20390;-64
2022/03/23 03:50:39;;;;;;;113.88;35.72;;;;;;;;;;5035426;28;20041;-64
2022/03/23 03:53:09;;;;;;;124.63;35.20;;;;;;;;;;5035486;28;20103;-62
2022/03/23 03:55:38;;;;;;;107.73;34.67;;;;;;;;;;5035540;28;20115;-62
2022/03/23 03:58:04;;;;;;;107.10;33.63;;;;;;;;;;5035214;28;20125;-64
2022/03/23 04:00:30;;;;;;;85.20;30.73;;;;;;;;;;5035388;28;20021;-63
2022/03/23 04:02:57;;;;;;;92.65;32.97;;;;;;;;;;5035264;28;20026;-64
2022/03/23 04:05:22;;;;;;;80.22;29.65;;;;;;;;;;5035298;28;20505;-63
2022/03/23 04:07:48;;;;;;;69.65;27.60;;;;;;;;;;5035009;28;20045;-63
2022/03/23 04:10:15;;;;;;;73.75;29.27;;;;;;;;;;5035142;28;20084;-63
2022/03/23 04:12:40;;;;;;;61.90;27.27;;;;;;;;;;5034770;28;20148;-63
2022/03/23 04:15:06;;;;;;;65.13;27.35;;;;;;;;;;5034937;28;20048;-63
2022/03/23 04:17:32;;;;;;;69.10;28.58;;;;;;;;;;5034894;28;20033;-64
2022/03/23 04:19:57;;;;;;;72.15;29.35;;;;;;;;;;5034977;28;20022;-63
2022/03/23 04:22:23;;;;;;;62.72;28.05;;;;;;;;;;5034847;28;20037;-63
2022/03/23 04:24:48;;;;;;;65.45;27.95;;;;;;;;;;5035026;28;20108;-63
2022/03/23 04:27:15;;;;;;;76.35;29.08;;;;;;;;;;5034386;28;20360;-63
2022/03/23 04:29:41;;;;;;;69.95;27.25;;;;;;;;;;5034812;28;20084;-63
2022/03/23 04:32:07;;;;;;;77.22;29.08;;;;;;;;;;5034804;28;20064;-63
2022/03/23 04:34:34;;;;;;;70.03;27.45;;;;;;;;;;5034684;28;20039;-62
2022/03/23 04:37:00;;;;;;;68.47;28.90;;;;;;;;;;5034055;28;20029;-63
2022/03/23 04:39:26;;;;;;;78.18;29.45;;;;;;;;;;5034530;28;20022;-63
2022/03/23 04:41:51;;;;;;;92.00;28.88;;;;;;;;;;5034361;28;20032;-63
2022/03/23 04:44:17;;;;;;;79.10;28.80;;;;;;;;;;5034473;28;20036;-63
2022/03/23 04:46:43;;;;;;;88.03;29.08;;;;;;;;;;5034319;28;20030;-61
2022/03/23 04:49:08;;;;;;;79.88;30.38;;;;;;;;;;5034425;28;20463;-63
2022/03/23 04:51:34;;;;;;;65.03;27.00;;;;;;;;;;5034454;28;20421;-62
2022/03/23 04:54:02;;;;;;;69.53;27.63;;;;;;;;;;5034336;28;20103;-62
2022/03/23 04:56:27;;;;;;;82.55;28.65;;;;;;;;;;5033915;28;20040;-63
2022/03/23 04:58:54;;;;;;;70.47;27.90;;;;;;;;;;5034220;28;20021;-63
2022/03/23 05:01:20;;;;;;;79.93;27.77;;;;;;;;;;5034138;28;20052;-63
2022/03/23 05:03:46;;;;;;;69.43;27.48;;;;;;;;;;5033995;28;20474;-62
2022/03/23 05:06:11;;;;;;;70.18;27.50;;;;;;;;;;5034009;28;20117;-63
2022/03/23 05:08:37;;;;;;;66.65;27.05;;;;;;;;;;5014448;28;20390;-63
2022/03/23 05:11:03;;;;;;;69.47;30.70;;;;;;;;;;5015582;28;20033;-61
2022/03/23 05:13:28;;;;;;;77.90;28.40;;;;;;;;;;5033860;28;20029;-62
2022/03/23 05:15:54;;;;;;;91.28;29.75;;;;;;;;;;5033718;28;20029;-63
2022/03/23 05:18:19;;;;;;;74.45;28.23;;;;;;;;;;5034026;28;20024;-62
2022/03/23 05:20:45;;;;;;;76.47;28.30;;;;;;;;;;5033898;28;20398;-61
2022/03/23 05:23:10;;;;;;;72.22;27.70;;;;;;;;;;5033710;28;20036;-63
2022/03/23 05:25:36;;;;;;;79.78;28.75;;;;;;;;;;5033269;28;20075;-63
2022/03/23 05:28:02;;;;;;;70.82;28.70;;;;;;;;;;5033254;28;20025;-61
2022/03/23 05:30:27;;;;;;;81.97;29.38;;;;;;;;;;5033323;28;20487;-63
2022/03/23 05:32:53;;;;;;;76.53;30.85;;;;;;;;;;5033618;28;20025;-63
2022/03/23 05:35:18;;;;;;;72.45;27.65;;;;;;;;;;5032032;28;20029;-63
2022/03/23 05:37:44;;;;;;;84.28;28.83;;;;;;;;;;5033213;28;20040;-62
2022/03/23 05:40:10;;;;;;;76.75;29.90;;;;;;;;;;5033246;28;20029;-63
2022/03/23 05:42:36;;;;;;;74.90;28.63;;;;;;;;;;5033212;28;20021;-63
2022/03/23 05:45:02;;;;;;;80.10;28.42;;;;;;;;;;5033281;28;20168;-62
2022/03/23 05:47:28;;;;;;;84.40;29.55;;;;;;;;;;5032431;28;20034;-62
2022/03/23 05:49:53;;;;;;;84.60;28.52;;;;;;;;;;5033197;28;20021;-63
2022/03/23 05:52:19;;;;;;;80.63;29.98;;;;;;;;;;5033178;28;20033;-63
2022/03/23 05:54:45;;;;;;;78.15;29.33;;;;;;;;;;5032955;28;20033;-62
2022/03/23 05:57:10;;;;;;;68.10;29.48;;;;;;;;;;5032918;28;20083;-61
2022/03/23 05:59:36;;;;;;;75.32;28.23;;;;;;;;;;5032975;28;20060;-64
2022/03/23 06:02:01;;;;;;;87.63;29.30;;;;;;;;;;5033083;28;20467;-62
2022/03/23 06:04:27;;;;;;;82.50;27.58;;;;;;;;;;5032983;28;20447;-63
2022/03/23 06:06:53;;;;;;;91.15;28.25;;;;;;;;;;5032694;28;20112;-62
2022/03/23 06:09:21;;;;;;;75.93;27.90;;;;;;;;;;5032591;28;20542;-63
2022/03/23 06:11:47;;;;;;;71.95;27.80;;;;;;;;;;5032620;28;20393;-62
2022/03/23 06:14:13;;;;;;;78.30;33.60;;;;;;;;;;5032757;28;20112;-61
2022/03/23 06:16:38;;;;;;;92.70;35.95;;;;;;;;;;5033023;28;20075;-63
2022/03/23 06:19:04;;;;;;;95.75;36.55;;;;;;;;;;5032726;28;20086;-63
2022/03/23 06:21:29;;;;;;;84.65;36.78;;;;;;;;;;5032876;28;20036;-62
2022/03/23 06:23:55;;;;;;;82.90;35.10;;;;;;;;;;5032525;28;20477;-63
2022/03/23 06:26:20;;;;;;;84.18;33.83;;;;;;;;;;5032539;28;20029;-63
2022/03/23 06:28:46;;;;;;;89.28;36.53;;;;;;;;;;5032470;28;20037;-63
2022/03/23 06:31:11;;;;;;;86.75;33.72;;;;;;;;;;5032684;28;20112;-62
2022/03/23 06:33:37;;;;;;;99.28;34.38;;;;;;;;;;5032779;28;20490;-63
2022/03/23 06:36:03;;;;;;;96.28;35.60;;;;;;;;;;5032535;28;20040;-61
2022/03/23 06:38:29;;;;;;;107.80;36.40;;;;;;;;;;5032377;28;20072;-63
2022/03/23 06:40:55;;;;;;;108.60;36.35;;;;;;;;;;5032717;28;20075;-64
2022/03/23 06:43:21;;;;;;;109.35;38.15;;;;;;;;;;5029965;28;20029;-62
2022/03/23 06:45:46;;;;;;;88.85;36.78;;;;;;;;;;5030883;28;20025;-63
2022/03/23 06:48:12;;;;;;;113.55;39.30;;;;;;;;;;5047987;28;20496;-64
2022/03/23 06:50:37;;;;;;;116.65;40.20;;;;;;;;;;5051323;28;20390;-63
2022/03/23 06:53:03;;;;;;;98.43;37.53;;;;;;;;;;5035598;28;20036;-62
2022/03/23 06:55:29;;;;;;;115.47;39.88;;;;;;;;;;5050072;28;20036;-62
2022/03/23 06:57:54;;;;;;;92.75;36.63;;;;;;;;;;5051412;28;20447;-63
2022/03/23 07:00:20;;;;;;;117.82;45.47;;;;;;;;;;5054759;28;20438;-62
2022/03/23 07:02:48;;;;;;;125.00;40.17;;;;;;;;;;5055397;28;20473;-61
2022/03/23 07:05:17;;;;;;;115.57;39.80;;;;;;;;;;5054601;28;20500;-62
2022/03/23 07:10:27;;;;;;;109.68;38.20;;;;;;;;;;5035201;28;20505;-62
2022/03/23 07:12:53;;;;;;;102.80;37.20;;;;;;;;;;5035416;28;20030;-62
2022/03/23 07:15:19;;;;;;;91.30;37.78;;;;;;;;;;5034810;28;20036;-63
2022/03/23 07:17:44;;;;;;;99.88;37.13;;;;;;;;;;5035054;28;20037;-63
2022/03/23 07:20:10;;;;;;;96.30;38.97;;;;;;;;;;5034912;28;20029;-61
2022/03/23 07:22:36;;;;;;;96.95;39.38;;;;;;;;;;5026967;28;20037;-62
2022/03/23 07:25:01;;;;;;;83.03;38.45;;;;;;;;;;5035125;28;20026;-62
2022/03/23 07:27:27;;;;;;;92.90;39.70;;;;;;;;;;5042726;28;20037;-62
2022/03/23 07:29:53;;;;;;;95.68;38.15;;;;;;;;;;5034747;28;20113;-62
2022/03/23 07:32:18;;;;;;;100.55;39.67;;;;;;;;;;5044019;28;20032;-62
2022/03/23 07:34:44;;;;;;;92.80;41.05;;;;;;;;;;5050107;28;20087;-62
2022/03/23 07:37:10;;;;;;;89.07;40.08;;;;;;;;;;5050698;28;20116;-61
2022/03/23 07:39:35;;;;;;;96.25;40.83;;;;;;;;;;5051393;28;20017;-61
2022/03/23 07:42:02;;;;;;;87.53;41.30;;;;;;;;;;5034598;28;20167;-63
2022/03/23 07:44:30;;;;;;;93.78;39.47;;;;;;;;;;5034224;28;20426;-64
2022/03/23 07:46:55;;;;;;;79.10;39.33;;;;;;;;;;5042847;28;20052;-63
2022/03/23 07:49:21;;;;;;;82.53;38.70;;;;;;;;;;5034281;28;20026;-62
2022/03/23 07:51:46;;;;;;;72.05;40.58;;;;;;;;;;5034397;28;20061;-63
2022/03/23 07:54:12;;;;;;;81.28;40.25;;;;;;;;;;5042770;28;20462;-63
2022/03/23 07:56:38;;;;;;;88.22;40.75;;;;;;;;;;5050351;28;20030;-62
2022/03/23 07:59:04;;;;;;;78.80;40.17;;;;;;;;;;5041752;28;20048;-62
2022/03/23 08:01:29;;;;;;;84.88;40.92;;;;;;;;;;5043685;28;20406;-63
2022/03/23 08:03:55;;;;;;;74.35;38.40;;;;;;;;;;5032541;28;20022;-61
2022/03/23 08:06:20;;;;;;;56.38;30.55;;;;;;;;;;5019171;28;20018;-64
2022/03/23 08:08:46;;;;;;;39.22;24.60;;;;;;;;;;5022598;28;20159;-61
2022/03/23 08:11:11;;;;;;;37.97;22.40;;;;;;;;;;5021677;28;20458;-63
2022/03/23 08:13:37;;;;;;;39.38;22.65;;;;;;;;;;5023949;28;20027;-63
2022/03/23 08:16:04;;;;;;;37.20;22.25;;;;;;;;;;5021015;28;20034;-63
2022/03/23 08:18:29;;;;;;;32.25;20.20;;;;;;;;;;5026325;28;20038;-63
2022/03/23 08:20:55;;;;;;;34.83;20.70;;;;;;;;;;5021867;28;20125;-62
2022/03/23 08:23:21;;;;;;;33.38;19.20;;;;;;;;;;5018958;28;20094;-62
2022/03/23 08:25:46;;;;;;;35.67;18.30;;;;;;;;;;5021640;28;20022;-65
2022/03/23 08:28:17;;;;;;;29.98;19.10;;;;;;;;;;5019614;28;20076;-63
2022/03/23 08:30:44;;;;;;;29.45;19.25;;;;;;;;;;5022189;28;20486;-63
2022/03/23 08:33:09;;;;;;;28.60;18.48;;;;;;;;;;5021663;28;20030;-62
2022/03/23 08:35:36;;;;;;;27.23;19.08;;;;;;;;;;5019216;28;20026;-62
2022/03/23 08:38:02;;;;;;;28.15;18.17;;;;;;;;;;5027292;28;20067;-60
2022/03/23 08:40:28;;;;;;;25.20;16.95;;;;;;;;;;5034449;28;20053;-63
2022/03/23 08:42:55;;;;;;;34.90;16.75;;;;;;;;;;5033655;28;20075;-60
2022/03/23 08:45:21;;;;;;;27.45;19.58;;;;;;;;;;5032966;28;20488;-61
2022/03/23 08:47:49;;;;;;;26.02;17.52;;;;;;;;;;5033244;28;20037;-61
2022/03/23 08:50:15;;;;;;;26.88;17.60;;;;;;;;;;5033157;28;20067;-62
2022/03/23 08:52:41;;;;;;;24.98;16.45;;;;;;;;;;5033350;28;20034;-62
2022/03/23 08:55:10;;;;;;;20.45;15.60;;;;;;;;;;5040932;28;20033;-63
2022/03/23 08:57:36;;;;;;;22.58;15.77;;;;;;;;;;5053177;28;20084;-63
2022/03/23 09:00:06;;;;;;;24.95;14.88;;;;;;;;;;5045957;28;20474;-64
2022/03/23 09:02:32;;;;;;;21.95;14.93;;;;;;;;;;5044018;28;20032;-63
2022/03/23 09:04:57;;;;;;;23.50;15.38;;;;;;;;;;5052834;28;20025;-62
2022/03/23 09:07:23;;;;;;;20.83;13.40;;;;;;;;;;5042165;28;20033;-61
2022/03/23 09:09:48;;;;;;;17.58;13.05;;;;;;;;;;5032986;28;20437;-63
2022/03/23 09:12:14;;;;;;;16.70;12.20;;;;;;;;;;5036726;28;20448;-62
2022/03/23 09:14:40;;;;;;;18.20;12.35;;;;;;;;;;5052849;28;20111;-60
2022/03/23 09:17:05;;;;;;;16.27;12.85;;;;;;;;;;5052364;28;20033;-62
2022/03/23 09:19:33;;;;;;;21.17;14.32;;;;;;;;;;5052632;28;20033;-61
2022/03/23 09:21:59;;;;;;;14.82;11.48;;;;;;;;;;5052547;28;20104;-63
2022/03/23 09:24:26;;;;;;;19.35;11.63;;;;;;;;;;5041947;28;20113;-63
2022/03/23 09:26:53;;;;;;;16.42;10.27;;;;;;;;;;5046648;28;20029;-61
2022/03/23 09:29:19;;;;;;;14.27;10.18;;;;;;;;;;5042410;28;20282;-62
2022/03/23 09:31:44;;;;;;;16.70;9.88;;;;;;;;;;5045430;28;20029;-62
2022/03/23 09:34:10;;;;;;;15.15;10.00;;;;;;;;;;5051734;28;20025;-61
2022/03/23 09:39:20;;;;;;;20.88;10.63;;;;;;;;;;5051919;28;20039;-62
2022/03/23 09:41:46;;;;;;;15.98;11.02;;;;;;;;;;5052366;28;20040;-61
2022/03/23 09:44:12;;;;;;;15.95;11.07;;;;;;;;;;5052043;28;20021;-61
2022/03/23 09:46:38;;;;;;;23.00;11.70;;;;;;;;;;5052017;28;20024;-60
2022/03/23 09:49:06;;;;;;;19.55;12.13;;;;;;;;;;5052211;28;20108;-60
2022/03/23 09:51:33;;;;;;;19.38;12.57;;;;;;;;;;5051531;28;20119;-60
2022/03/23 09:54:00;;;;;;;18.02;12.32;;;;;;;;;;5052179;28;20025;-62
2022/03/23 09:56:26;;;;;;;17.60;12.27;;;;;;;;;;5049799;28;20385;-62
2022/03/23 09:58:51;;;;;;;17.23;12.00;;;;;;;;;;5032259;28;20025;-60
2022/03/23 10:01:32;;;;;;;18.10;11.40;;;;;;;;;;5031550;28;20033;-61
2022/03/23 10:04:06;;;;;;;15.98;11.82;;;;;;;;;;5031301;28;20030;-62
2022/03/23 10:07:08;;;;;;;19.35;13.85;;;;;;;;;;5038523;28;20474;-63
2022/03/23 10:09:55;;;;;;;19.17;13.10;;;;;;;;;;5033885;28;20033;-62
2022/03/23 10:12:58;;;;;;;16.92;12.75;;;;;;;;;;5025381;28;20029;-61
2022/03/23 10:15:57;;;;;;;20.77;12.50;;;;;;;;;;5032554;28;20067;-62
2022/03/23 10:18:56;;;;;;;18.77;13.47;;;;;;;;;;5030916;28;20052;-62
2022/03/23 10:21:28;;;;;;;17.45;13.45;;;;;;;;;;5027654;28;20782;-61
2022/03/23 10:24:05;;;;;;;20.00;13.52;;;;;;;;;;5028755;28;20025;-62
2022/03/23 10:26:33;;;;;;;18.75;14.00;;;;;;;;;;5031089;28;20442;-63
2022/03/23 10:29:00;;;;;;;17.55;13.27;;;;;;;;;;5031419;28;20088;-62
2022/03/23 10:31:27;;;;;;;26.73;13.65;;;;;;;;;;5031330;28;20030;-61
2022/03/23 10:34:07;;;;;;;21.50;13.38;;;;;;;;;;5031308;28;20100;-61
2022/03/23 10:36:34;;;;;;;23.63;13.43;;;;;;;;;;5030753;28;20033;-63
2022/03/23 10:39:02;;;;;;;23.48;13.15;;;;;;;;;;5046617;28;20029;-63
2022/03/23 10:41:30;;;;;;;18.40;12.95;;;;;;;;;;5032064;28;20080;-61
2022/03/23 10:43:55;;;;;;;18.48;13.10;;;;;;;;;;5031697;28;20380;-61
2022/03/23 10:46:21;;;;;;;19.67;12.40;;;;;;;;;;5049004;28;20032;-62
2022/03/23 10:48:51;;;;;;;22.55;12.60;;;;;;;;;;5046531;28;20073;-63
2022/03/23 10:51:27;;;;;;;;;;;;;;;;;;5028106;28;20028;-60
2022/03/23 10:53:53;;;;;;;21.45;12.57;;;;;;;;;;5025534;28;20405;-61
2022/03/23 10:56:34;;;;;;;22.17;12.90;;;;;;;;;;5024089;28;20265;-60
2022/03/23 10:59:23;;;;;;;20.23;13.82;;;;;;;;;;5025590;28;20021;-62
2022/03/23 11:02:01;;;;;;;16.90;13.20;;;;;;;;;;5024892;28;20049;-63
2022/03/23 11:04:47;;;;;;;19.70;13.93;;;;;;;;;;5029006;28;20056;-62
2022/03/23 11:07:38;;;;;;;21.05;13.70;;;;;;;;;;5035987;28;20028;-64
2022/03/23 11:15:47;;;;;;;20.55;13.45;;;;;;;;;;5051120;28;20531;-62
2022/03/23 11:18:16;;;;;;;22.00;13.20;;;;;;;;;;5034382;28;20056;-61
2022/03/23 11:21:02;;;;;;;20.17;13.30;;;;;;;;;;5046952;28;20096;-63
2022/03/23 11:23:33;;;;;;;27.42;13.07;;;;;;;;;;5020845;28;20081;-61
2022/03/23 11:26:10;;;;;;;22.85;12.93;;;;;;;;;;5027881;28;20526;-62
2022/03/23 11:28:46;;;;;;;28.75;13.48;;;;;;;;;;5027450;28;20057;-63
2022/03/23 11:31:18;;;;;;;22.50;13.20;;;;;;;;;;5020232;28;20049;-61
2022/03/23 11:33:49;;;;;;;18.33;13.40;;;;;;;;;;5022456;28;20100;-61
2022/03/23 11:36:17;;;;;;;18.83;12.57;;;;;;;;;;5020794;28;20033;-62
2022/03/23 11:38:44;;;;;;;18.15;12.85;;;;;;;;;;5019806;28;20072;-62
2022/03/23 11:41:10;;;;;;;24.45;14.13;;;;;;;;;;5022937;28;20593;-61
2022/03/23 11:43:39;;;;;;;22.45;13.38;;;;;;;;;;5019547;28;20034;-62
2022/03/23 11:46:05;;;;;;;23.48;13.80;;;;;;;;;;5026235;28;20018;-61
2022/03/23 11:48:33;;;;;;;20.65;13.45;;;;;;;;;;5026525;28;20374;-63
2022/03/23 11:51:10;;;;;;;25.02;14.85;;;;;;;;;;5024262;28;20522;-62
2022/03/23 11:54:06;;;;;;;24.95;14.23;;;;;;;;;;5024746;28;20021;-62
2022/03/23 11:56:56;;;;;;;23.80;13.98;;;;;;;;;;5025958;28;20482;-63
2022/03/23 11:59:31;;;;;;;19.10;13.95;;;;;;;;;;5027054;28;20022;-62
2022/03/23 12:01:59;;;;;;;23.90;13.55;;;;;;;;;;5024869;28;20057;-64
2022/03/23 12:04:28;;;;;;;19.83;13.90;;;;;;;;;;5023418;28;20025;-60
2022/03/23 12:07:00;;;;;;;22.65;14.13;;;;;;;;;;5023999;28;20474;-64
2022/03/23 12:09:30;;;;;;;24.98;13.95;;;;;;;;;;5022639;28;20044;-63
2022/03/23 12:11:56;;;;;;;26.25;15.75;;;;;;;;;;5025633;28;20025;-63
2022/03/23 12:14:35;;;;;;;27.50;15.30;;;;;;;;;;5023228;28;20356;-63
2022/03/23 12:17:28;;;;;;;26.42;15.82;;;;;;;;;;5027755;28;20060;-62
2022/03/23 12:20:04;;;;;;;25.13;16.35;;;;;;;;;;5027201;28;20536;-63
2022/03/23 12:22:42;;;;;;;24.80;15.23;;;;;;;;;;5033196;28;20120;-63
2022/03/23 12:25:23;;;;;;;24.45;16.45;;;;;;;;;;5040858;28;20044;-65
2022/03/23 12:27:58;;;;;;;50.45;27.67;;;;;;;;;;5039447;28;20076;-63
2022/03/23 12:30:27;;;;;;;30.65;16.33;;;;;;;;;;5015548;28;20064;-63
2022/03/23 12:32:57;;;;;;;30.38;19.40;;;;;;;;;;5039299;28;20024;-63
2022/03/23 12:35:34;;;;;;;24.92;15.68;;;;;;;;;;5053408;28;20029;-62
2022/03/23 12:38:01;;;;;;;27.00;15.80;;;;;;;;;;5046204;28;20398;-62
2022/03/23 12:40:41;;;;;;;30.77;16.63;;;;;;;;;;5024662;28;20030;-61
2022/03/23 12:43:07;;;;;;;26.15;15.75;;;;;;;;;;5031870;28;20070;-61
2022/03/23 12:45:37;;;;;;;31.35;15.80;;;;;;;;;;5033251;28;20029;-63
2022/03/23 12:57:49;;;;;;;28.88;15.38;;;;;;;;;;5040991;28;20033;-63
2022/03/23 12:59:16;;;;;;;30.17;17.02;;;;;;;;;;4972904;28;20045;-65
2022/03/23 13:01:41;;;;;;;29.45;16.38;;;;;;;;;;4991570;28;20113;-63
2022/03/23 13:04:07;;;;;;;25.75;16.40;;;;;;;;;;4975885;28;20488;-64
2022/03/23 13:06:36;;;;;;;29.05;16.48;;;;;;;;;;4979842;28;20043;-61
2022/03/23 13:09:09;;;;;;;25.85;15.15;;;;;;;;;;4978639;28;20030;-61
2022/03/23 13:11:35;;;;;;;27.77;15.48;;;;;;;;;;4988231;28;20039;-61
2022/03/23 13:14:01;;;;;;;29.10;16.88;;;;;;;;;;4975167;28;20377;-61
2022/03/23 13:16:28;;;;;;;29.80;15.93;;;;;;;;;;4986772;28;20037;-61
2022/03/23 13:19:03;;;;;;;25.33;13.98;;;;;;;;;;4972603;28;20130;-62
2022/03/23 13:21:31;;;;;;;24.95;14.75;;;;;;;;;;4972045;28;20250;-63
2022/03/23 13:24:03;;;;;;;30.15;14.32;;;;;;;;;;4970128;28;20035;-62
2022/03/23 13:26:33;;;;;;;27.30;14.18;;;;;;;;;;4970717;28;20062;-62
2022/03/23 13:28:59;;;;;;;;;;;;;;;;;;4980208;28;20060;-62
2022/03/23 13:31:31;;;;;;;31.35;16.65;;;;;;;;;;5026253;28;19945;-63
2022/03/23 13:34:01;;;;;;;92.13;55.20;;;;;;;;;;5040838;28;20405;-63
2022/03/23 13:36:27;;;;;;;25.63;16.15;;;;;;;;;;5047497;28;20471;-64
2022/03/23 13:38:55;;;;;;;21.10;14.15;;;;;;;;;;5035588;28;20033;-64
2022/03/23 13:44:12;;;;;;;22.98;14.48;;;;;;;;;;5044678;28;20032;-65
2022/03/23 13:46:38;;;;;;;28.00;16.45;;;;;;;;;;5035959;28;20052;-65
2022/03/23 13:49:05;;;;;;;21.42;12.50;;;;;;;;;;5052167;28;20028;-64
2022/03/23 13:51:40;;;;;;;21.23;14.10;;;;;;;;;;5037059;28;20113;-65
2022/03/23 13:54:08;;;;;;;20.23;13.25;;;;;;;;;;5032433;28;20063;-64
2022/03/23 13:56:37;;;;;;;22.48;13.38;;;;;;;;;;5032205;28;20064;-65
2022/03/23 13:59:07;;;;;;;24.50;12.95;;;;;;;;;;5051739;28;20366;-64
2022/03/23 14:01:59;;;;;;;20.75;13.60;;;;;;;;;;5052378;28;20033;-64
2022/03/23 14:04:24;;;;;;;20.08;12.85;;;;;;;;;;5024841;28;20439;-64
2022/03/23 14:06:53;;;;;;;18.27;12.82;;;;;;;;;;5013585;28;20064;-65
2022/03/23 14:09:22;;;;;;;21.92;14.10;;;;;;;;;;5031409;28;20099;-62
2022/03/23 14:11:51;;;;;;;23.55;13.70;;;;;;;;;;5014065;28;20494;-62
2022/03/23 14:14:27;;;;;;;20.35;13.18;;;;;;;;;;5032286;28;20526;-63
2022/03/23 14:17:32;;;;;;;24.17;15.10;;;;;;;;;;5031847;28;20143;-64
2022/03/23 14:19:58;;;;;;;19.65;13.57;;;;;;;;;;5050153;28;20385;-62
2022/03/23 14:22:26;;;;;;;20.92;13.30;;;;;;;;;;5051591;28;20090;-65
2022/03/23 14:24:57;;;;;;;19.30;12.43;;;;;;;;;;5051706;28;20021;-65
2022/03/23 14:27:32;;;;;;;17.10;12.07;;;;;;;;;;5045295;28;20037;-64
2022/03/23 14:32:35;;;;;;;26.10;16.65;;;;;;;;;;5031924;28;20037;-65
2022/03/23 14:35:02;;;;;;;62.92;36.08;;;;;;;;;;5031612;28;20026;-64
2022/03/23 14:37:43;;;;;;;26.17;16.00;;;;;;;;;;5031737;28;20021;-64
2022/03/23 14:40:26;;;;;;;;;;;;;;;;;;5032313;28;20471;-64
2022/03/23 14:42:53;;;;;;;21.88;14.13;;;;;;;;;;5031536;28;19917;-63
2022/03/23 14:45:42;;;;;;;25.20;13.27;;;;;;;;;;5031783;28;20044;-65
2022/03/23 14:48:21;;;;;;;23.77;15.27;;;;;;;;;;5031755;28;20026;-64
2022/03/23 14:50:50;;;;;;;23.67;13.32;;;;;;;;;;5031296;28;20067;-65
2022/03/23 14:53:17;;;;;;;24.38;14.45;;;;;;;;;;5031619;28;20116;-64
2022/03/23 14:55:44;;;;;;;26.42;16.67;;;;;;;;;;5031444;28;20474;-63
2022/03/23 14:58:27;;;;;;;19.98;13.43;;;;;;;;;;5031576;28;20040;-64